Time;durP1;ratioP1;P1;durP2;ratioP2;P2;SDS_P1;SDS_P2;PMS_P1;PMS_P2;Temp;Humidity;BMP_temperature;BMP_pressure;BME280_temperature;BME280_humidity;BME280_pressure;Samples;Min_cycle;Max_cycle;Signal;HPM_P1;HPM_P2
2022/05/24 00:01:25;;;;;;;7.80;7.50;;;;;;;21.11;58.20;101279.53;5014014;28;20022;-59
2022/05/24 00:03:51;;;;;;;7.40;7.10;;;;;;;21.12;58.71;101275.78;5014216;28;20037;-60
2022/05/24 00:06:17;;;;;;;7.43;7.13;;;;;;;21.14;57.93;101281.91;5014032;28;20021;-60
2022/05/24 00:08:43;;;;;;;7.28;6.97;;;;;;;21.19;57.10;101284.13;5013946;28;20273;-60
2022/05/24 00:11:08;;;;;;;7.30;7.00;;;;;;;21.18;58.42;101280.53;5013962;28;20036;-60
2022/05/24 00:13:34;;;;;;;8.10;7.70;;;;;;;21.21;57.56;101284.81;5014125;28;20025;-60
2022/05/24 00:15:59;;;;;;;7.53;7.22;;;;;;;21.20;57.35;101285.84;5013875;28;20104;-60
2022/05/24 00:18:28;;;;;;;7.35;6.95;;;;;;;21.23;57.32;101286.31;5013981;28;20029;-60
2022/05/24 00:20:59;;;;;;;7.10;6.80;;;;;;;21.23;56.78;101285.47;5013685;28;20034;-60
2022/05/24 00:23:26;;;;;;;7.45;7.15;;;;;;;21.21;55.82;101282.91;5013437;28;20466;-61
2022/05/24 00:25:54;;;;;;;7.18;6.88;;;;;;;21.25;56.56;101281.56;5013993;28;20034;-60
2022/05/24 00:28:21;;;;;;;8.18;7.78;;;;;;;21.25;56.05;101281.56;5013572;28;20022;-60
2022/05/24 00:30:48;;;;;;;7.72;7.32;;;;;;;21.23;55.31;101269.91;5013732;28;20488;-60
2022/05/24 00:33:15;;;;;;;8.00;7.60;;;;;;;21.28;55.59;101269.41;5013913;28;20061;-60
2022/05/24 00:35:41;;;;;;;7.47;7.18;;;;;;;21.25;55.34;101281.56;5013521;28;20021;-60
2022/05/24 00:38:20;;;;;;;7.45;7.05;;;;;;;21.28;56.17;101275.72;5013168;28;20050;-60
2022/05/24 00:40:45;;;;;;;7.60;7.30;;;;;;;21.27;55.61;101274.00;5014252;28;20049;-60
2022/05/24 00:43:19;;;;;;;7.37;7.07;;;;;;;21.31;55.55;101279.97;5021367;28;20469;-60
2022/05/24 00:45:50;;;;;;;7.70;7.40;;;;;;;21.28;55.70;101281.19;5013404;28;20270;-60
2022/05/24 00:48:24;;;;;;;8.40;8.00;;;;;;;21.30;55.65;101284.59;5013165;28;20076;-60
2022/05/24 00:50:51;;;;;;;7.67;7.37;;;;;;;21.28;54.64;101285.81;5013288;28;20034;-61
2022/05/24 00:53:40;;;;;;;7.30;7.00;;;;;;;21.29;55.05;101280.16;5013223;28;20157;-60
2022/05/24 00:56:14;;;;;;;7.88;7.47;;;;;;;21.31;55.14;101275.34;5013251;28;20061;-60
2022/05/24 00:58:52;;;;;;;7.47;7.10;;;;;;;21.31;55.24;101275.34;5013036;28;20021;-60
2022/05/24 01:01:46;;;;;;;7.85;7.55;;;;;;;21.31;55.40;101269.88;5011975;28;20033;-60
2022/05/24 01:04:14;;;;;;;7.78;7.47;;;;;;;21.31;54.72;101269.88;5013081;28;20017;-60
2022/05/24 01:06:40;;;;;;;7.40;7.10;;;;;;;21.31;55.06;101269.88;5013014;28;20405;-60
2022/05/24 01:09:09;;;;;;;7.82;7.43;;;;;;;21.28;55.07;101270.25;5013051;28;20030;-60
2022/05/24 01:11:41;;;;;;;7.82;7.50;;;;;;;21.30;54.72;101273.66;5012788;28;20060;-60
2022/05/24 01:14:08;;;;;;;7.20;6.90;;;;;;;21.30;54.88;101270.91;5013050;28;20025;-60
2022/05/24 01:16:34;;;;;;;7.60;7.30;;;;;;;21.30;54.63;101268.19;5013095;28;20116;-60
2022/05/24 01:19:04;;;;;;;7.75;7.35;;;;;;;21.29;54.82;101271.94;5012911;28;20017;-60
2022/05/24 01:21:31;;;;;;;7.90;7.50;;;;;;;21.30;54.75;101268.19;5012595;28;20044;-60
2022/05/24 01:24:22;;;;;;;7.57;7.28;;;;;;;21.28;55.16;101275.72;5013048;28;20397;-59
2022/05/24 01:26:56;;;;;;;7.70;7.40;;;;;;;21.34;55.03;101276.06;5013100;28;20018;-61
2022/05/24 01:29:23;;;;;;;;;;;;;;;21.32;55.09;101277.06;5015181;28;20029;-60
2022/05/24 01:37:18;;;;;;;7.32;7.03;;;;;;;21.31;55.19;101264.41;5012643;28;20098;-60
2022/05/24 01:39:47;;;;;;;7.82;7.32;;;;;;;21.32;54.75;101274.31;5012705;28;20037;-60
2022/05/24 01:42:13;;;;;;;8.00;7.70;;;;;;;21.34;55.72;101273.31;5012643;28;20033;-60
2022/05/24 01:45:17;;;;;;;6.95;6.65;;;;;;;21.31;55.17;101275.34;5012817;28;20033;-60
2022/05/24 01:47:47;;;;;;;7.80;7.47;;;;;;;21.31;55.35;101275.34;5011842;28;20109;-60
2022/05/24 01:50:17;;;;;;;7.60;7.30;;;;;;;21.35;54.90;101267.66;5014302;28;20030;-60
2022/05/24 01:52:56;;;;;;;7.85;7.45;;;;;;;21.31;55.44;101275.34;5016539;28;20037;-60
2022/05/24 01:55:44;;;;;;;7.50;7.20;;;;;;;21.30;54.93;101268.19;5016389;28;20378;-60
2022/05/24 01:58:13;;;;;;;7.43;7.13;;;;;;;21.32;55.33;101266.13;5016471;28;20084;-60
2022/05/24 02:00:42;;;;;;;8.52;8.07;;;;;;;21.34;55.05;101263.22;5016371;28;20026;-60
2022/05/24 02:03:08;;;;;;;7.40;7.00;;;;;;;21.31;55.22;101253.47;5016459;28;20034;-60
2022/05/24 02:05:36;;;;;;;7.43;7.05;;;;;;;21.32;55.65;101255.16;5016197;28;20028;-60
2022/05/24 02:08:03;;;;;;;7.40;7.10;;;;;;;21.30;55.32;101249.03;5016341;28;20022;-60
2022/05/24 02:10:35;;;;;;;8.05;7.65;;;;;;;21.32;55.35;101249.69;5016172;28;20461;-60
2022/05/24 02:13:02;;;;;;;8.05;7.75;;;;;;;21.32;55.15;101248.84;5016239;28;20045;-60
2022/05/24 02:15:31;;;;;;;7.60;7.22;;;;;;;21.32;54.54;101246.97;5016357;28;20018;-60
2022/05/24 02:18:04;;;;;;;7.50;7.20;;;;;;;21.29;55.43;101244.59;5016100;28;20025;-60
2022/05/24 02:20:35;;;;;;;8.18;7.88;;;;;;;21.30;54.83;101240.84;5018360;28;20030;-60
2022/05/24 02:23:00;;;;;;;7.88;7.40;;;;;;;21.31;55.70;101247.16;5015978;28;20084;-59
2022/05/24 02:25:38;;;;;;;8.15;7.75;;;;;;;21.36;55.64;101252.94;5015860;28;20057;-60
2022/05/24 02:28:08;;;;;;;7.85;7.50;;;;;;;21.36;55.58;101241.16;5015848;28;20029;-60
2022/05/24 02:30:35;;;;;;;7.80;7.40;;;;;;;21.29;55.31;101250.06;5016019;28;20060;-60
2022/05/24 02:33:00;;;;;;;7.38;7.07;;;;;;;21.31;55.18;101248.00;5015761;28;20056;-60
2022/05/24 02:35:25;;;;;;;8.20;7.80;;;;;;;21.34;55.83;101240.50;5015604;28;20458;-60
2022/05/24 02:37:50;;;;;;;7.35;7.05;;;;;;;21.34;55.61;101244.09;5015624;28;20014;-60
2022/05/24 02:43:00;;;;;;;7.60;7.30;;;;;;;21.34;56.41;101241.34;5015625;28;20448;-59
2022/05/24 02:45:25;;;;;;;7.35;7.05;;;;;;;21.35;55.11;101236.72;5015452;28;20026;-60
2022/05/24 02:47:51;;;;;;;9.00;8.50;;;;;;;21.36;55.99;101238.44;5015456;28;20104;-60
2022/05/24 02:50:17;;;;;;;7.93;7.53;;;;;;;21.32;55.92;101249.69;5015454;28;20461;-60
2022/05/24 02:52:42;;;;;;;7.93;7.63;;;;;;;21.31;55.33;101250.75;5015413;28;20024;-60
2022/05/24 02:55:09;;;;;;;8.07;7.72;;;;;;;21.32;56.02;101255.16;5015402;28;20508;-60
2022/05/24 02:57:35;;;;;;;7.43;7.13;;;;;;;21.34;55.38;101244.09;5015360;28;20033;-60
2022/05/24 03:00:01;;;;;;;7.90;7.50;;;;;;;21.34;55.46;101256.91;5015334;28;20104;-60
2022/05/24 03:02:26;;;;;;;7.70;7.40;;;;;;;21.35;55.32;101253.13;5014723;28;20156;-60
2022/05/24 03:04:52;;;;;;;7.63;7.32;;;;;;;21.31;55.96;101248.00;5015273;28;20029;-60
2022/05/24 03:10:00;;;;;;;7.68;7.35;;;;;;;21.31;54.90;101248.00;5015216;28;20096;-60
2022/05/24 03:15:10;;;;;;;8.00;7.70;;;;;;;21.35;56.56;101234.00;5015164;28;20095;-60
2022/05/24 03:17:35;;;;;;;7.38;7.07;;;;;;;21.35;56.04;101236.72;5014863;28;20030;-60
2022/05/24 03:20:01;;;;;;;7.80;7.50;;;;;;;21.35;56.74;101243.03;5015051;28;20033;-60
2022/05/24 03:22:27;;;;;;;7.75;7.35;;;;;;;21.33;56.17;101242.34;5013306;28;20046;-62
2022/05/24 03:24:52;;;;;;;8.00;7.60;;;;;;;21.37;56.07;101238.25;5014813;28;20028;-60
2022/05/24 03:27:17;;;;;;;7.88;7.57;;;;;;;21.39;56.34;101235.31;5014700;28;20021;-60
2022/05/24 03:29:44;;;;;;;7.60;7.30;;;;;;;21.37;57.35;101230.03;5014792;28;20032;-60
2022/05/24 03:32:12;;;;;;;7.72;7.43;;;;;;;21.35;56.56;101217.59;5014721;28;20433;-61
2022/05/24 03:34:39;;;;;;;7.65;7.35;;;;;;;21.38;57.33;101230.88;5014617;28;20486;-60
2022/05/24 03:37:05;;;;;;;7.70;7.40;;;;;;;21.39;56.80;101238.06;5014976;28;20109;-60
2022/05/24 03:39:31;;;;;;;7.88;7.57;;;;;;;21.37;56.97;101234.66;5014472;28;20072;-60
2022/05/24 03:41:57;;;;;;;7.80;7.40;;;;;;;21.39;57.38;101240.78;5014588;28;20029;-60
2022/05/24 03:44:22;;;;;;;7.80;7.50;;;;;;;21.37;57.66;101240.13;5014369;28;20026;-60
2022/05/24 03:46:47;;;;;;;7.30;7.00;;;;;;;21.39;57.62;101243.53;5014496;28;20380;-61
2022/05/24 03:49:14;;;;;;;7.75;7.45;;;;;;;21.39;57.53;101246.25;5014328;28;20030;-60
2022/05/24 03:51:40;;;;;;;7.97;7.57;;;;;;;21.40;58.12;101239.75;5014315;28;20030;-60
2022/05/24 03:54:06;;;;;;;7.47;7.18;;;;;;;21.40;58.39;101245.22;5018167;28;20022;-60
2022/05/24 03:56:32;;;;;;;7.57;7.28;;;;;;;21.38;57.31;101239.09;5014677;28;20018;-60
2022/05/24 03:58:58;;;;;;;7.30;7.00;;;;;;;21.39;58.04;101244.38;5014226;28;20115;-60
2022/05/24 04:01:23;;;;;;;8.20;7.82;;;;;;;21.38;58.23;101244.56;5014033;28;20477;-60
2022/05/24 04:03:48;;;;;;;0.55;0.55;;;;;;;21.96;56.35;101240.31;5014138;28;20109;-61
2022/05/24 04:06:14;;;;;;;0.30;0.30;;;;;;;22.27;56.23;101242.94;5014123;28;20433;-60
2022/05/24 04:08:39;;;;;;;0.38;0.38;;;;;;;22.47;56.73;101238.59;5013853;28;20026;-60
2022/05/24 04:11:09;;;;;;;0.65;0.50;;;;;;;22.67;56.65;101238.88;5014217;28;20539;-59
2022/05/24 04:13:36;;;;;;;0.30;0.25;;;;;;;22.90;56.20;101238.78;5012783;28;20033;-61
2022/05/24 04:16:02;;;;;;;0.30;0.30;;;;;;;23.00;57.19;101220.97;5013965;28;20029;-59
2022/05/24 04:18:27;;;;;;;0.35;0.35;;;;;;;23.14;57.41;101240.34;5013647;28;20284;-60
2022/05/24 04:20:54;;;;;;;0.73;0.30;;;;;;;23.31;56.88;101230.81;5013696;28;20036;-60
2022/05/24 04:23:19;;;;;;;0.47;0.32;;;;;;;23.41;58.17;101231.34;5013676;28;20041;-60
2022/05/24 04:25:45;;;;;;;0.57;0.30;;;;;;;23.50;58.97;101227.41;5013674;28;20026;-60
2022/05/24 04:28:10;;;;;;;0.52;0.10;;;;;;;23.57;59.11;101231.13;5013654;28;20046;-60
2022/05/24 04:30:36;;;;;;;0.13;0.13;;;;;;;23.68;58.75;101230.63;5013601;28;20048;-59
2022/05/24 04:33:02;;;;;;;0.30;0.30;;;;;;;23.84;59.72;101232.19;5013764;28;20022;-60
2022/05/24 04:35:27;;;;;;;0.40;0.20;;;;;;;23.89;59.87;101226.13;5013388;28;20049;-60
2022/05/24 04:37:52;;;;;;;1.38;0.20;;;;;;;23.99;59.89;101226.63;5013480;28;20041;-60
2022/05/24 04:40:18;;;;;;;0.20;0.20;;;;;;;24.00;59.46;101225.56;5013433;28;20060;-60
2022/05/24 04:42:43;;;;;;;0.10;0.10;;;;;;;24.09;60.30;101223.53;5013717;28;20037;-60
2022/05/24 04:45:12;;;;;;;0.80;0.40;;;;;;;24.15;60.68;101229.06;5014293;28;20052;-56
2022/05/24 04:47:37;;;;;;;0.20;0.20;;;;;;;24.11;61.09;101230.53;5014995;28;20067;-59
2022/05/24 04:50:08;;;;;;;0.30;0.30;;;;;;;23.42;61.32;101227.56;5013359;28;20022;-60
2022/05/24 04:52:36;;;;;;;0.30;0.30;;;;;;;23.07;60.16;101235.63;5013018;28;20041;-60
2022/05/24 04:55:04;;;;;;;0.55;0.40;;;;;;;22.90;57.52;101231.41;5013247;28;20026;-60
2022/05/24 04:57:29;;;;;;;0.32;0.20;;;;;;;22.65;56.59;101238.22;5011647;28;20022;-60
2022/05/24 04:59:55;;;;;;;0.50;0.32;;;;;;;22.59;55.65;101241.72;5013142;28;20029;-60
2022/05/24 05:02:21;;;;;;;0.20;0.20;;;;;;;22.41;54.75;101236.63;5012963;28;20026;-60
2022/05/24 05:04:47;;;;;;;0.30;0.20;;;;;;;22.29;54.47;101229.91;5013173;28;20033;-59
2022/05/24 05:07:12;;;;;;;0.45;0.30;;;;;;;22.17;52.49;101227.66;5013163;28;20017;-59
2022/05/24 05:09:38;;;;;;;0.30;0.30;;;;;;;22.23;52.37;101231.53;5012915;28;20029;-60
2022/05/24 05:12:05;;;;;;;0.30;0.25;;;;;;;22.14;52.89;101224.41;5013005;28;20362;-60
2022/05/24 05:14:31;;;;;;;0.38;0.20;;;;;;;21.94;52.64;101221.34;5012837;28;20030;-60
2022/05/24 05:16:57;;;;;;;0.40;0.20;;;;;;;21.96;53.55;101219.25;5013280;28;20120;-60
2022/05/24 05:19:22;;;;;;;0.63;0.38;;;;;;;21.88;52.56;101222.09;5012690;28;20053;-60
2022/05/24 05:21:47;;;;;;;0.40;0.30;;;;;;;21.92;53.57;101224.25;5013197;28;20079;-59
2022/05/24 05:24:12;;;;;;;0.13;0.13;;;;;;;21.98;52.74;101227.28;5012734;28;20109;-60
2022/05/24 05:26:38;;;;;;;0.30;0.10;;;;;;;22.00;52.59;101227.94;5012530;28;20030;-60
2022/05/24 05:29:03;;;;;;;0.63;0.25;;;;;;;21.97;52.11;101220.09;5012757;28;20259;-59
2022/05/24 05:31:29;;;;;;;0.30;0.30;;;;;;;21.97;51.15;101220.09;5012922;28;20050;-59
2022/05/24 05:33:57;;;;;;;0.50;0.40;;;;;;;21.93;52.65;101225.97;5012789;28;20033;-59
2022/05/24 05:36:24;;;;;;;0.68;0.22;;;;;;;21.91;51.44;101225.28;5014109;28;20030;-61
2022/05/24 05:38:50;;;;;;;0.20;0.20;;;;;;;21.98;53.08;101219.06;5012952;28;20034;-60
2022/05/24 05:41:18;;;;;;;0.68;0.30;;;;;;;21.88;52.35;101216.63;5012764;28;20052;-60
2022/05/24 05:43:44;;;;;;;0.20;0.20;;;;;;;21.99;53.04;101218.03;5012671;28;20032;-60
2022/05/24 05:46:10;;;;;;;0.50;0.13;;;;;;;21.84;52.43;101210.66;5012732;28;20400;-60
2022/05/24 05:48:36;;;;;;;0.40;0.40;;;;;;;21.79;52.46;101215.81;5012367;28;20026;-60
2022/05/24 05:51:02;;;;;;;0.38;0.38;;;;;;;21.90;53.23;101206.31;5012647;28;20026;-60
2022/05/24 05:53:27;;;;;;;0.30;0.30;;;;;;;21.81;53.42;101205.53;5012438;28;20083;-60
2022/05/24 05:55:53;;;;;;;0.20;0.20;;;;;;;21.80;52.28;101201.09;5012597;28;20033;-60
2022/05/24 05:58:19;;;;;;;0.77;0.32;;;;;;;21.88;51.96;101200.19;5012440;28;20442;-60
2022/05/24 06:00:44;;;;;;;0.35;0.30;;;;;;;21.87;53.76;101203.97;5012552;28;20025;-60
2022/05/24 06:03:10;;;;;;;0.25;0.10;;;;;;;21.84;52.86;101199.72;5012507;28;20030;-59
2022/05/24 06:05:35;;;;;;;0.35;0.25;;;;;;;21.81;53.58;101205.53;5012359;28;20026;-60
2022/05/24 06:08:01;;;;;;;0.93;0.20;;;;;;;21.84;54.21;101201.59;5012418;28;20076;-59
2022/05/24 06:10:28;;;;;;;0.28;0.25;;;;;;;21.91;52.48;101200.66;5012228;28;20033;-59
2022/05/24 06:12:56;;;;;;;0.25;0.20;;;;;;;21.90;53.77;101204.44;5012451;28;20036;-60
2022/05/24 06:15:25;;;;;;;0.20;0.20;;;;;;;21.86;52.54;101197.66;5012210;28;20033;-60
2022/05/24 06:17:51;;;;;;;0.40;0.10;;;;;;;21.85;53.21;101195.94;5009713;28;20402;-60
2022/05/24 06:20:19;;;;;;;0.40;0.30;;;;;;;21.80;53.57;101198.38;5004185;28;20511;-61
2022/05/24 06:22:45;;;;;;;0.35;0.10;;;;;;;21.78;53.90;101192.22;5011922;28;20076;-60
2022/05/24 06:25:10;;;;;;;0.85;0.50;;;;;;;21.84;52.61;101198.88;5011895;28;20037;-60
2022/05/24 06:27:35;;;;;;;4.85;0.40;;;;;;;22.05;54.68;101193.53;5013544;28;20025;-60
2022/05/24 06:30:01;;;;;;;3.35;0.90;;;;;;;22.02;52.17;101187.56;5011597;28;20034;-60
2022/05/24 06:32:26;;;;;;;0.38;0.38;;;;;;;22.16;53.12;101197.69;5011547;28;20025;-61
2022/05/24 06:34:53;;;;;;;1.48;0.25;;;;;;;22.17;52.07;101193.91;5011315;28;20030;-60
2022/05/24 06:37:20;;;;;;;0.38;0.30;;;;;;;21.91;52.88;101195.19;5012561;28;20440;-61
2022/05/24 06:39:46;;;;;;;1.58;0.20;;;;;;;22.18;53.05;101190.16;5015362;28;20036;-60
2022/05/24 06:42:11;;;;;;;2.05;0.30;;;;;;;22.06;53.06;101187.03;5015404;28;20354;-60
2022/05/24 06:44:36;;;;;;;0.35;0.20;;;;;;;22.13;53.71;101187.13;5014917;28;20527;-60
2022/05/24 06:47:02;;;;;;;0.55;0.10;;;;;;;22.06;53.78;101188.91;5014818;28;20499;-61
2022/05/24 06:49:27;;;;;;;0.50;0.30;;;;;;;22.10;53.59;101182.03;5011623;28;20475;-62
2022/05/24 06:51:53;;;;;;;0.10;0.10;;;;;;;22.13;53.57;101178.91;5012639;28;20045;-61
2022/05/24 06:54:18;;;;;;;1.85;0.30;;;;;;;22.06;53.81;101175.22;4995786;28;20485;-61
2022/05/24 06:56:43;;;;;;;0.70;0.30;;;;;;;22.02;53.01;101173.88;5012436;28;20033;-61
2022/05/24 07:04:38;;;;;;;0.20;0.20;;;;;;;22.04;52.82;101167.16;5006625;28;20037;-61
2022/05/24 07:07:04;;;;;;;0.52;0.20;;;;;;;22.14;52.72;101172.38;5014163;28;20425;-61
2022/05/24 07:09:31;;;;;;;0.65;0.20;;;;;;;22.07;51.92;101160.50;5014852;28;20022;-62
2022/05/24 07:11:56;;;;;;;0.50;0.28;;;;;;;22.16;52.21;101167.56;5015086;28;20026;-61
2022/05/24 07:14:21;;;;;;;1.10;0.32;;;;;;;22.00;51.48;101164.97;5008588;28;20022;-61
2022/05/24 07:16:47;;;;;;;0.65;0.57;;;;;;;21.97;52.07;101157.16;5008495;28;20046;-61
2022/05/24 07:19:12;;;;;;;0.68;0.30;;;;;;;22.05;53.01;101151.63;5009268;28;20034;-60
2022/05/24 07:21:37;;;;;;;0.88;0.50;;;;;;;22.06;53.00;101159.66;5007411;28;20564;-61
2022/05/24 07:24:03;;;;;;;1.55;0.45;;;;;;;21.99;52.99;101153.19;5014930;28;20029;-61
2022/05/24 07:26:28;;;;;;;0.40;0.30;;;;;;;22.01;51.08;101155.75;5011641;28;20437;-61
2022/05/24 07:28:53;;;;;;;0.63;0.32;;;;;;;22.06;52.81;101159.66;4996444;28;20038;-61
2022/05/24 07:31:18;;;;;;;0.22;0.22;;;;;;;22.12;52.20;101158.88;4998936;28;20372;-61
2022/05/24 07:33:43;;;;;;;0.50;0.20;;;;;;;22.15;51.67;101152.19;5012916;28;20025;-60
2022/05/24 07:36:09;;;;;;;0.82;0.30;;;;;;;22.01;52.44;101150.28;5013939;28;20057;-61
2022/05/24 07:38:34;;;;;;;0.55;0.25;;;;;;;22.06;51.59;101147.84;5013741;28;20400;-62
2022/05/24 07:46:28;;;;;;;2.05;0.40;;;;;;;21.96;51.75;101153.56;5014278;28;20385;-61
2022/05/24 07:48:53;;;;;;;0.50;0.43;;;;;;;22.05;51.67;101157.09;5013275;28;20030;-61
2022/05/24 07:51:19;;;;;;;0.57;0.20;;;;;;;22.09;52.09;101167.47;5012682;28;20068;-61
2022/05/24 07:53:44;;;;;;;0.10;0.10;;;;;;;22.00;53.41;101154.03;5012087;28;20065;-61
2022/05/24 07:56:10;;;;;;;1.48;0.40;;;;;;;22.06;51.92;101158.81;5012324;28;20113;-61
2022/05/24 07:58:35;;;;;;;0.40;0.30;;;;;;;22.02;51.94;101149.25;5006854;28;20093;-61
2022/05/24 08:01:01;;;;;;;0.32;0.17;;;;;;;22.04;52.39;101144.44;5000409;28;20159;-61
2022/05/24 08:03:27;;;;;;;0.20;0.17;;;;;;;22.05;50.98;101148.88;4994040;28;20018;-61
2022/05/24 08:05:52;;;;;;;0.20;0.13;;;;;;;22.02;51.43;101149.25;4993952;28;20050;-62
2022/05/24 08:08:18;;;;;;;0.40;0.20;;;;;;;22.02;52.28;101146.50;4993719;28;20022;-61
2022/05/24 08:10:44;;;;;;;0.10;0.10;;;;;;;22.03;52.82;101150.94;5010813;28;20026;-61
2022/05/24 08:13:13;;;;;;;0.35;0.30;;;;;;;21.90;51.61;101149.69;5013206;28;20034;-61
2022/05/24 08:15:38;;;;;;;0.80;0.20;;;;;;;22.02;52.14;101155.56;5013087;28;20072;-61
2022/05/24 08:18:05;;;;;;;1.42;0.20;;;;;;;21.98;51.84;101150.63;5013917;28;20022;-61
2022/05/24 08:20:31;;;;;;;0.15;0.15;;;;;;;22.12;52.42;101158.03;5012577;28;20031;-60
2022/05/24 08:22:58;;;;;;;0.20;0.20;;;;;;;22.09;51.41;101155.69;5013887;28;20545;-61
2022/05/24 08:25:25;;;;;;;0.28;0.20;;;;;;;22.03;52.27;101154.53;5013555;28;20097;-61
2022/05/24 08:27:51;;;;;;;1.08;0.20;;;;;;;22.05;51.57;101151.63;5011248;28;20029;-61
2022/05/24 08:30:17;;;;;;;1.25;0.20;;;;;;;22.04;52.08;101158.09;5004475;28;20030;-62
2022/05/24 08:32:44;;;;;;;1.75;0.22;;;;;;;22.02;51.94;101152.81;4997376;28;20105;-61
2022/05/24 08:35:12;;;;;;;0.40;0.30;;;;;;;21.96;51.35;101149.97;5006883;28;20030;-61
2022/05/24 08:37:39;;;;;;;0.40;0.20;;;;;;;22.11;51.31;101161.81;4997544;28;20046;-61
2022/05/24 08:40:05;;;;;;;0.10;0.00;;;;;;;22.01;50.23;101151.13;5000588;28;20447;-61
2022/05/24 08:42:57;;;;;;;0.20;0.10;;;;;;;22.07;51.87;101157.75;5001484;28;20487;-61
2022/05/24 08:48:23;;;;;;;0.35;0.13;;;;;;;22.12;51.84;101152.56;4989278;28;20057;-61
2022/05/24 08:51:10;;;;;;;0.20;0.20;;;;;;;22.06;51.39;101154.19;4970911;28;20110;-61
2022/05/24 08:53:42;;;;;;;0.73;0.20;;;;;;;21.97;50.83;101154.41;4970933;28;20129;-62
2022/05/24 08:56:12;;;;;;;0.70;0.40;;;;;;;22.04;51.16;101155.38;4970936;28;20189;-61
2022/05/24 08:58:48;;;;;;;0.22;0.20;;;;;;;22.09;52.12;101163.91;4971426;28;20129;-60
2022/05/24 09:01:24;;;;;;;0.68;0.30;;;;;;;22.03;50.70;101161.88;4991919;28;20128;-61
2022/05/24 09:03:49;;;;;;;0.65;0.22;;;;;;;22.07;51.01;101160.50;4970848;28;20043;-61
2022/05/24 09:06:39;;;;;;;0.30;0.20;;;;;;;22.03;51.59;101164.63;4970904;28;20033;-61
2022/05/24 09:09:20;;;;;;;0.68;0.30;;;;;;;22.06;52.38;101156.91;4970181;28;20027;-61
2022/05/24 09:12:03;;;;;;;0.65;0.10;;;;;;;22.10;51.67;101150.00;4985740;28;20033;-61
2022/05/24 09:14:54;;;;;;;0.60;0.20;;;;;;;22.08;51.58;101162.19;4986195;28;20158;-61
2022/05/24 09:17:48;;;;;;;0.68;0.40;;;;;;;22.15;51.68;101153.03;4982671;28;20549;-61
2022/05/24 09:20:57;;;;;;;0.45;0.30;;;;;;;22.01;51.07;101150.28;4978818;28;20465;-61
2022/05/24 09:23:41;;;;;;;0.50;0.30;;;;;;;22.11;51.84;101153.59;4913692;29;20131;-61
2022/05/24 09:26:10;;;;;;;0.45;0.30;;;;;;;22.07;52.29;101144.06;4914381;29;20032;-61
2022/05/24 09:28:50;;;;;;;0.40;0.40;;;;;;;22.00;52.80;101132.97;4913820;29;20044;-61
2022/05/24 09:31:33;;;;;;;0.60;0.47;;;;;;;22.06;52.05;101147.84;4913976;29;20040;-61
2022/05/24 09:34:17;;;;;;;1.15;0.30;;;;;;;22.10;50.62;101140.94;4913943;29;20059;-60
2022/05/24 09:36:54;;;;;;;0.20;0.20;;;;;;;22.05;52.50;101141.53;4913529;29;20468;-61
2022/05/24 09:39:32;;;;;;;0.20;0.20;;;;;;;21.99;51.51;101149.59;4902218;29;20032;-61
2022/05/24 09:42:05;;;;;;;1.25;0.30;;;;;;;22.18;51.66;101146.34;4911386;29;20028;-61
2022/05/24 09:44:46;;;;;;;0.40;0.20;;;;;;;21.96;51.13;101147.22;4913674;29;20032;-61
2022/05/24 09:47:30;;;;;;;0.57;0.28;;;;;;;22.10;52.67;101150.00;4913779;29;20047;-61
2022/05/24 09:50:29;;;;;;;0.57;0.30;;;;;;;22.18;51.45;101143.59;4913834;29;20028;-61
2022/05/24 09:53:17;;;;;;;0.30;0.30;;;;;;;22.09;52.59;101133.78;4913847;29;20432;-61
2022/05/24 09:55:50;;;;;;;0.40;0.40;;;;;;;22.08;51.38;101119.25;4912766;29;20460;-61
2022/05/24 09:58:21;;;;;;;0.77;0.57;;;;;;;22.13;51.36;101135.94;4916515;29;20032;-61
2022/05/24 10:01:09;;;;;;;1.02;0.30;;;;;;;22.10;50.66;101132.75;5003163;28;20064;-61
2022/05/24 10:03:41;;;;;;;0.20;0.20;;;;;;;22.07;51.17;101125.75;5012364;28;20440;-61
2022/05/24 10:06:24;;;;;;;0.15;0.15;;;;;;;22.23;51.42;101124.72;5012529;28;20021;-61
2022/05/24 10:08:53;;;;;;;0.47;0.30;;;;;;;22.06;52.27;101132.28;5012400;28;20217;-61
2022/05/24 10:11:22;;;;;;;0.20;0.20;;;;;;;22.03;51.74;101123.56;5012338;28;20465;-61
2022/05/24 10:14:09;;;;;;;1.10;0.20;;;;;;;22.13;51.99;101126.88;5016119;28;20036;-61
2022/05/24 10:16:55;;;;;;;0.30;0.17;;;;;;;22.03;51.21;101121.66;5015913;28;20057;-61
2022/05/24 10:19:47;;;;;;;0.40;0.20;;;;;;;22.06;50.80;101109.53;5016173;28;20026;-61
2022/05/24 10:22:31;;;;;;;0.30;0.20;;;;;;;22.05;52.54;101116.03;5014518;28;20054;-62
2022/05/24 10:25:03;;;;;;;0.50;0.13;;;;;;;22.09;51.63;101109.97;5016047;28;20067;-61
2022/05/24 10:27:47;;;;;;;1.35;0.38;;;;;;;22.09;51.75;101106.41;5015793;28;20032;-61
2022/05/24 10:30:23;;;;;;;0.30;0.20;;;;;;;22.02;52.09;101097.22;5015983;28;20080;-62
2022/05/24 10:39:06;;;;;;;0.30;0.30;;;;;;;22.15;51.20;101091.94;5015703;28;20063;-62
2022/05/24 10:41:54;;;;;;;0.25;0.25;;;;;;;22.07;51.95;101094.78;5015625;28;20022;-62
2022/05/24 10:44:32;;;;;;;0.40;0.28;;;;;;;22.10;51.70;101084.31;5015547;28;20456;-62
2022/05/24 10:47:16;;;;;;;0.52;0.20;;;;;;;22.13;52.04;101074.84;5015629;28;20026;-61
2022/05/24 10:50:01;;;;;;;0.75;0.35;;;;;;;22.20;51.14;101078.53;5015982;28;20036;-60
2022/05/24 10:53:04;;;;;;;0.43;0.20;;;;;;;22.12;50.32;101070.41;5016792;28;20518;-62
2022/05/24 10:55:40;;;;;;;0.50;0.20;;;;;;;22.14;51.56;101073.81;5015365;28;20032;-62
2022/05/24 10:58:13;;;;;;;0.63;0.40;;;;;;;22.23;51.18;101075.41;5015416;28;20026;-61
2022/05/24 11:00:53;;;;;;;0.68;0.30;;;;;;;22.09;50.27;101062.59;5015231;28;20033;-61
2022/05/24 11:03:28;;;;;;;0.57;0.30;;;;;;;22.15;50.96;101061.81;5015359;28;20045;-61
2022/05/24 11:05:59;;;;;;;1.70;0.30;;;;;;;22.11;51.04;101055.03;5015289;28;20065;-61
2022/05/24 11:08:45;;;;;;;0.65;0.40;;;;;;;22.12;51.32;101064.94;5014813;28;20038;-61
2022/05/24 11:11:17;;;;;;;3.00;1.40;;;;;;;22.14;51.92;101062.84;5015167;28;20508;-62
2022/05/24 11:13:59;;;;;;;2.63;1.70;;;;;;;22.14;50.75;101046.44;5015088;28;20030;-61
2022/05/24 11:16:39;;;;;;;4.88;2.00;;;;;;;22.09;51.27;101060.69;5015144;28;20041;-62
2022/05/24 11:19:12;;;;;;;3.78;2.15;;;;;;;22.15;51.40;101068.13;5015045;28;20493;-61
2022/05/24 11:21:51;;;;;;;3.57;2.20;;;;;;;22.12;51.35;101051.25;5014974;28;20065;-62
2022/05/24 11:24:33;;;;;;;4.03;2.60;;;;;;;22.09;51.63;101049.75;5014354;28;20267;-62
2022/05/24 11:27:01;;;;;;;4.38;2.42;;;;;;;22.17;52.13;101051.50;5014813;28;20026;-61
2022/05/24 11:29:43;;;;;;;4.72;2.67;;;;;;;22.18;51.97;101043.13;5016906;28;20022;-61
2022/05/24 11:32:11;;;;;;;4.07;2.70;;;;;;;22.06;51.20;101032.88;5015092;28;20037;-60
2022/05/24 11:34:41;;;;;;;3.97;2.22;;;;;;;22.09;50.80;101035.22;5014591;28;20026;-60
2022/05/24 11:37:27;;;;;;;4.60;2.33;;;;;;;22.13;51.55;101039.25;5014664;28;20040;-60
2022/05/24 11:40:13;;;;;;;2.60;2.00;;;;;;;22.13;52.16;101037.38;5014543;28;20034;-61
2022/05/24 11:42:46;;;;;;;5.43;2.63;;;;;;;22.12;50.80;101043.88;5013053;28;20413;-60
2022/05/24 11:45:30;;;;;;;3.93;2.50;;;;;;;22.15;50.55;101040.75;5014584;28;20030;-61
2022/05/24 11:47:55;;;;;;;4.85;2.03;;;;;;;22.18;51.55;101036.81;5014403;28;20104;-61
2022/05/24 11:51:05;;;;;;;4.82;1.95;;;;;;;22.21;50.77;101030.94;5014381;28;20589;-61
2022/05/24 11:53:38;;;;;;;3.85;2.13;;;;;;;22.13;50.93;101034.63;4972567;28;20082;-61
2022/05/24 11:56:08;;;;;;;2.78;1.77;;;;;;;22.20;52.08;101023.78;4972994;28;20038;-61
2022/05/24 11:58:34;;;;;;;4.47;1.67;;;;;;;22.12;51.11;101032.09;4972646;28;20035;-61
2022/05/24 12:01:13;;;;;;;2.83;1.97;;;;;;;22.21;52.24;101020.84;4972913;28;20117;-61
2022/05/24 12:09:59;;;;;;;2.83;1.60;;;;;;;22.08;51.77;101014.34;4972710;28;20038;-61
2022/05/24 12:12:32;;;;;;;2.13;1.40;;;;;;;22.15;52.59;101015.25;4972496;28;20030;-61
2022/05/24 12:15:19;;;;;;;2.72;1.77;;;;;;;22.09;51.97;101010.56;4974684;28;20268;-61
2022/05/24 12:18:07;;;;;;;2.38;1.38;;;;;;;22.10;52.69;101004.91;4972574;28;20034;-61
2022/05/24 12:20:34;;;;;;;2.20;1.27;;;;;;;22.11;51.70;101011.22;4914770;29;20032;-61